KDTO

Details ICAO KDTO
Name DENTON MUNI
Region United States
Timezone America/Chicago (UTC-6.0)
Plans Departing 31
Arriving 11
Stats Elevation 642 ft / 196 m (AMSL)
Location 33.200722° -97.197976°
Runways 1
Magnetic Variation 3.529° E
Sunrise 2017-12-15 13:26:24 UTC / 2017-12-15 07:26:24 Local
Sunset 2017-12-15 23:24:32 UTC / 2017-12-15 17:24:32 Local
Advertisement - Login to hide

Runways

ID Width Length Bearing (true) Bearing (mag) Surface Threshold Offset Overrun Length
17 150 ft / 46 m 6,016 ft / 1,834 m 181.06° 177.53° Asphalt 0 ft / 0 m 0 ft / 0 m
35 150 ft / 46 m 6,016 ft / 1,834 m 1.06° 357.53° Asphalt 0 ft / 0 m 0 ft / 0 m

Approach Navaids

Runway Type Ident Frequency Range Bearing (true) Bearing (mag) Slope Elevation
17 Localiser IDTO 109.10 MHz 18 nm / 33 km 181.06° 177.53° - 642 ft / 196 m (AMSL)
17 Glidescope IDTO 109.10 MHz 10 nm / 19 km 181.06° 177.53° 3.00° 642 ft / 196 m (AMSL)

Map

Weather


0- 5 10 15 20 25 30 35+ Temperature / ° C

Clouds and Precipitation
Forecast for 2017-12-16 00:00 UTC. Updated an hour ago

Ground ~20,000 ft ~40,000 ft Winds

METAR

KDTO 151953Z 32006G15KT 10SM CLR 12/M04 A3024 RMK AO2 SLP240 T01171044

TAF

Not found

Frequencies

Recorded 119.32 MHz ASOS
Unicom 122.95 MHz UNICOM
Tower 119.95 MHz TWR
Unicom 119.95 MHz CTAF
Ground 123.95 MHz GND/CLNC DEL
Approach 118.10 MHz RGNL APP/DEP
Warning: Do not use this data for real-world aviation or navigation. No guarantee of current accuracy is given.